Time;durP1;ratioP1;P1;durP2;ratioP2;P2;SDS_P1;SDS_P2;PMS_P1;PMS_P2;Temp;Humidity;BMP_temperature;BMP_pressure;BME280_temperature;BME280_humidity;BME280_pressure;Samples;Min_cycle;Max_cycle;Signal;HPM_P1;HPM_P2
2024/01/15 00:00:09;;;;;;;211.63;197.67;;;4.70;99.90;;;;;;5052327;28;20411;-72
2024/01/15 00:02:35;;;;;;;193.20;179.70;;;4.70;99.90;;;;;;5053204;28;20384;-72
2024/01/15 00:05:01;;;;;;;181.37;168.10;;;4.70;99.90;;;;;;5053581;28;20032;-72
2024/01/15 00:07:27;;;;;;;163.13;150.53;;;4.80;99.90;;;;;;5034048;28;20388;-72
2024/01/15 00:09:53;;;;;;;163.60;151.47;;;4.80;99.90;;;;;;5033250;28;20040;-72
2024/01/15 00:12:19;;;;;;;178.00;164.57;;;4.80;99.90;;;;;;5045671;28;20387;-72
2024/01/15 00:14:45;;;;;;;187.60;171.70;;;4.70;99.90;;;;;;5053309;28;20033;-72
2024/01/15 00:17:11;;;;;;;177.57;160.83;;;4.70;99.90;;;;;;5035832;28;20416;-72
2024/01/15 00:19:38;;;;;;;146.97;134.83;;;4.70;99.90;;;;;;5048117;28;20048;-72
2024/01/15 00:22:04;;;;;;;149.03;137.17;;;4.70;99.90;;;;;;5052282;28;20040;-72
2024/01/15 00:24:30;;;;;;;179.57;166.40;;;4.70;99.90;;;;;;5052951;28;20383;-72
2024/01/15 00:26:56;;;;;;;203.53;189.20;;;4.70;99.90;;;;;;5041774;28;20048;-72
2024/01/15 00:29:22;;;;;;;212.40;194.23;;;4.70;99.90;;;;;;5052930;28;20336;-72
2024/01/15 00:31:48;;;;;;;198.37;182.40;;;4.70;99.90;;;;;;5052085;28;20052;-72
2024/01/15 00:34:14;;;;;;;195.13;180.80;;;4.70;99.90;;;;;;5052558;28;20372;-72
2024/01/15 00:36:41;;;;;;;198.30;183.77;;;4.70;99.90;;;;;;5051956;28;20045;-72
2024/01/15 00:39:07;;;;;;;184.40;170.13;;;4.80;99.90;;;;;;5052253;28;20048;-72
2024/01/15 00:41:33;;;;;;;203.47;188.57;;;4.70;99.90;;;;;;5052302;28;20063;-72
2024/01/15 00:43:59;;;;;;;156.57;144.47;;;4.80;99.90;;;;;;5051363;28;20049;-72
2024/01/15 00:46:25;;;;;;;215.67;199.30;;;4.70;99.90;;;;;;5052113;28;20395;-72
2024/01/15 00:48:51;;;;;;;194.83;177.97;;;4.70;99.90;;;;;;5050493;28;20026;-72
2024/01/15 00:51:17;;;;;;;165.00;152.23;;;4.70;99.90;;;;;;5052232;28;20033;-72
2024/01/15 00:53:43;;;;;;;169.40;156.90;;;4.70;99.90;;;;;;5052415;28;20084;-74
2024/01/15 00:56:09;;;;;;;192.87;178.87;;;4.70;99.90;;;;;;5052374;28;20503;-74
2024/01/15 00:58:35;;;;;;;151.43;139.60;;;4.70;99.90;;;;;;5052636;28;20036;-74
2024/01/15 01:01:02;;;;;;;142.47;130.53;;;4.70;99.90;;;;;;5051701;28;20479;-74
2024/01/15 01:03:28;;;;;;;145.87;133.87;;;4.70;99.90;;;;;;5050711;28;20028;-74
2024/01/15 01:05:54;;;;;;;174.77;161.73;;;4.70;99.90;;;;;;5044809;28;20033;-74
2024/01/15 01:08:20;;;;;;;164.57;151.97;;;4.70;99.90;;;;;;5031973;28;20056;-73
2024/01/15 01:10:46;;;;;;;152.87;140.90;;;4.70;99.90;;;;;;5032263;28;20026;-74
2024/01/15 01:13:12;;;;;;;166.30;153.63;;;4.60;99.90;;;;;;5036630;28;20032;-74
2024/01/15 01:15:39;;;;;;;216.37;200.73;;;4.60;99.90;;;;;;5051392;28;20491;-74
2024/01/15 01:18:05;;;;;;;202.87;188.07;;;4.70;99.90;;;;;;5052146;28;20020;-74
2024/01/15 01:20:31;;;;;;;181.33;167.73;;;4.70;99.90;;;;;;5051298;28;20033;-74
2024/01/15 01:22:57;;;;;;;155.10;142.80;;;4.70;99.90;;;;;;5051447;28;20055;-75
2024/01/15 01:25:23;;;;;;;142.73;131.87;;;4.80;99.90;;;;;;5051816;28;20029;-74
2024/01/15 01:27:49;;;;;;;187.13;173.30;;;4.70;99.90;;;;;;5051422;28;20053;-74
2024/01/15 01:30:15;;;;;;;194.53;180.73;;;4.80;99.90;;;;;;5050522;28;20040;-74
2024/01/15 01:32:41;;;;;;;154.10;141.83;;;4.80;99.90;;;;;;5051434;28;20041;-74
2024/01/15 01:35:07;;;;;;;126.93;116.60;;;4.60;99.90;;;;;;5051869;28;20479;-74
2024/01/15 01:37:34;;;;;;;190.23;176.60;;;4.70;99.90;;;;;;5051348;28;20044;-74
2024/01/15 01:40:00;;;;;;;196.47;182.03;;;4.70;99.90;;;;;;5049608;28;20041;-73
2024/01/15 01:42:26;;;;;;;205.73;191.27;;;4.60;99.90;;;;;;5051326;28;20044;-74
2024/01/15 01:44:52;;;;;;;222.17;206.43;;;4.20;99.90;;;;;;5051983;28;20040;-74
2024/01/15 01:47:18;;;;;;;179.27;166.23;;;4.10;99.90;;;;;;5051062;28;20041;-74
2024/01/15 01:49:45;;;;;;;195.93;182.40;;;4.00;99.90;;;;;;5052100;28;20040;-74
2024/01/15 01:52:11;;;;;;;151.17;139.43;;;3.90;99.90;;;;;;5050181;28;20032;-74
2024/01/15 01:54:37;;;;;;;120.40;109.83;;;3.90;99.90;;;;;;5032844;28;20025;-74
2024/01/15 01:57:04;;;;;;;100.43;90.97;;;4.00;99.90;;;;;;5050437;28;20044;-74
2024/01/15 01:59:30;;;;;;;156.37;143.77;;;4.10;99.90;;;;;;5050768;28;20043;-74
2024/01/15 02:01:56;;;;;;;157.67;145.00;;;4.30;99.90;;;;;;5035196;28;20034;-74
2024/01/15 02:04:25;;;;;;;145.97;134.20;;;4.30;99.90;;;;;;5031782;28;20038;-74
2024/01/15 02:06:51;;;;;;;96.17;87.20;;;4.40;99.90;;;;;;5019532;28;20040;-74
2024/01/15 02:09:20;;;;;;;112.33;102.83;;;4.50;99.90;;;;;;5033977;28;20033;-74
2024/01/15 02:11:47;;;;;;;192.80;179.30;;;4.60;99.90;;;;;;5037999;28;20060;-74
2024/01/15 02:14:14;;;;;;;196.50;182.73;;;4.50;99.90;;;;;;5042914;28;20048;-75
2024/01/15 02:16:40;;;;;;;199.47;185.27;;;4.60;99.90;;;;;;5049694;28;20049;-74
2024/01/15 02:19:06;;;;;;;178.27;164.97;;;4.60;99.90;;;;;;5050602;28;20044;-74
2024/01/15 02:21:32;;;;;;;183.37;169.97;;;4.60;99.90;;;;;;5049758;28;20044;-74
2024/01/15 02:23:58;;;;;;;189.37;175.33;;;4.70;99.90;;;;;;5051642;28;20037;-74
2024/01/15 02:26:24;;;;;;;190.87;177.07;;;4.70;99.90;;;;;;5051348;28;20033;-74
2024/01/15 02:28:51;;;;;;;182.27;168.73;;;4.70;99.90;;;;;;5033738;28;20029;-74
2024/01/15 02:31:17;;;;;;;188.00;174.67;;;4.70;99.90;;;;;;5051164;28;20033;-74
2024/01/15 02:33:45;;;;;;;186.00;172.63;;;4.70;99.90;;;;;;5055043;28;20040;-74
2024/01/15 02:36:12;;;;;;;190.73;176.97;;;4.70;99.90;;;;;;5044350;28;20041;-74
2024/01/15 02:38:38;;;;;;;143.97;133.10;;;4.70;99.90;;;;;;5035277;28;20464;-74
2024/01/15 02:41:04;;;;;;;150.70;138.70;;;4.80;99.90;;;;;;5035362;28;20025;-74
2024/01/15 02:43:30;;;;;;;178.93;165.40;;;4.70;99.90;;;;;;5054989;28;20064;-74
2024/01/15 02:45:58;;;;;;;176.63;163.73;;;4.70;99.90;;;;;;5054356;28;20052;-74
2024/01/15 02:48:24;;;;;;;183.17;169.57;;;4.70;99.90;;;;;;5054687;28;20033;-74
2024/01/15 02:50:50;;;;;;;193.20;179.53;;;4.80;99.90;;;;;;5054794;28;20021;-74
2024/01/15 02:53:16;;;;;;;212.60;197.73;;;4.70;99.90;;;;;;5054963;28;20029;-73
2024/01/15 02:55:42;;;;;;;236.60;220.73;;;4.40;99.90;;;;;;5054701;28;20486;-75
2024/01/15 02:58:08;;;;;;;192.13;178.43;;;4.20;99.90;;;;;;5054899;28;20048;-74
2024/01/15 03:00:34;;;;;;;223.97;208.87;;;4.10;99.90;;;;;;5048560;28;20387;-74
2024/01/15 03:03:00;;;;;;;214.47;199.60;;;4.00;99.90;;;;;;5041320;28;20088;-74
2024/01/15 03:05:26;;;;;;;188.90;175.33;;;4.10;99.90;;;;;;5044312;28;20518;-75
2024/01/15 03:07:52;;;;;;;169.83;156.80;;;4.20;99.90;;;;;;5039970;28;20037;-74
2024/01/15 03:10:18;;;;;;;115.07;105.13;;;4.10;99.90;;;;;;5052894;28;20340;-75
2024/01/15 03:12:45;;;;;;;75.30;67.23;;;4.20;99.90;;;;;;5053251;28;20029;-74
2024/01/15 03:15:11;;;;;;;106.33;97.10;;;4.30;99.90;;;;;;5052445;28;20043;-74
2024/01/15 03:17:37;;;;;;;81.97;73.70;;;4.20;99.90;;;;;;5052568;28;20041;-74
2024/01/15 03:20:03;;;;;;;106.30;96.27;;;4.20;99.90;;;;;;5052975;28;20028;-74
2024/01/15 03:22:29;;;;;;;161.80;149.53;;;4.30;99.90;;;;;;5060525;28;20047;-74
2024/01/15 03:24:55;;;;;;;129.67;118.67;;;4.20;99.90;;;;;;5054303;28;20033;-74
2024/01/15 03:27:22;;;;;;;166.30;153.50;;;4.10;99.90;;;;;;5050716;28;20040;-73
2024/01/15 03:29:48;;;;;;;140.37;129.07;;;3.90;99.90;;;;;;5053072;28;20055;-74
2024/01/15 03:32:16;;;;;;;86.00;77.10;;;3.80;99.90;;;;;;5051949;28;20033;-74
2024/01/15 03:34:42;;;;;;;74.00;65.97;;;3.80;99.90;;;;;;5052121;28;20053;-74
2024/01/15 03:37:08;;;;;;;82.17;73.23;;;4.00;99.90;;;;;;5053219;28;20045;-74
2024/01/15 03:39:34;;;;;;;72.30;62.07;;;4.10;99.90;;;;;;5054128;28;20036;-73
2024/01/15 03:42:00;;;;;;;77.50;66.23;;;4.00;99.90;;;;;;5053129;28;20044;-74
2024/01/15 03:44:26;;;;;;;135.40;124.17;;;4.00;99.90;;;;;;5053850;28;20403;-74
2024/01/15 03:46:52;;;;;;;118.10;107.83;;;3.90;99.90;;;;;;5052990;28;20052;-74
2024/01/15 03:49:18;;;;;;;128.00;117.57;;;3.90;99.90;;;;;;5034083;28;20053;-73
2024/01/15 03:51:44;;;;;;;127.20;116.23;;;3.90;99.90;;;;;;5046912;28;20029;-74
2024/01/15 03:54:10;;;;;;;122.90;112.50;;;3.90;99.90;;;;;;5053904;28;20036;-74
2024/01/15 03:56:37;;;;;;;132.13;121.07;;;3.80;99.90;;;;;;5053617;28;20494;-74
2024/01/15 03:59:03;;;;;;;136.13;125.07;;;3.80;99.90;;;;;;5053101;28;20045;-74
2024/01/15 04:01:29;;;;;;;102.80;93.73;;;3.70;99.90;;;;;;5050701;28;20060;-74
2024/01/15 04:03:55;;;;;;;134.77;123.70;;;3.70;99.90;;;;;;5053328;28;20037;-74
2024/01/15 04:06:21;;;;;;;178.10;164.57;;;3.80;99.90;;;;;;5051838;28;20407;-74
2024/01/15 04:08:47;;;;;;;98.73;89.67;;;3.70;99.90;;;;;;5053462;28;20029;-74
2024/01/15 04:11:13;;;;;;;93.80;85.00;;;3.60;99.90;;;;;;5053140;28;20369;-74
2024/01/15 04:13:39;;;;;;;87.87;79.57;;;3.40;99.90;;;;;;5053519;28;20036;-74
2024/01/15 04:16:06;;;;;;;116.00;106.07;;;3.40;99.90;;;;;;5052311;28;20040;-73
2024/01/15 04:18:35;;;;;;;115.93;105.57;;;3.30;99.90;;;;;;5053404;28;20036;-73
2024/01/15 04:21:04;;;;;;;89.73;81.03;;;3.40;99.90;;;;;;5049285;28;20096;-74
2024/01/15 04:23:30;;;;;;;131.67;120.97;;;3.30;99.90;;;;;;5051886;28;20033;-74
2024/01/15 04:25:56;;;;;;;136.83;125.60;;;3.30;99.90;;;;;;5052841;28;20032;-74
2024/01/15 04:28:22;;;;;;;109.70;99.73;;;3.30;99.90;;;;;;5052088;28;20375;-73
2024/01/15 04:30:49;;;;;;;75.20;63.77;;;3.30;99.90;;;;;;5052111;28;20037;-74
2024/01/15 04:33:15;;;;;;;95.50;86.00;;;3.40;99.90;;;;;;5052917;28;20461;-74
2024/01/15 04:35:41;;;;;;;69.00;58.10;;;3.50;99.90;;;;;;5052491;28;20028;-74
2024/01/15 04:38:07;;;;;;;79.47;64.87;;;3.50;99.90;;;;;;5051602;28;20498;-74
2024/01/15 04:40:33;;;;;;;73.30;60.33;;;3.50;99.90;;;;;;5047387;28;20042;-74
2024/01/15 04:42:59;;;;;;;68.13;57.53;;;3.60;99.90;;;;;;5032878;28;20053;-74
2024/01/15 04:45:28;;;;;;;66.83;51.23;;;3.60;99.90;;;;;;5032044;28;20068;-74
2024/01/15 04:47:57;;;;;;;74.47;60.63;;;3.50;99.90;;;;;;5042819;28;20052;-74
2024/01/15 04:50:23;;;;;;;73.03;60.93;;;3.50;99.90;;;;;;5034092;28;20468;-74
2024/01/15 04:52:49;;;;;;;72.67;62.73;;;3.40;99.90;;;;;;5052519;28;20032;-74
2024/01/15 04:55:16;;;;;;;76.10;63.43;;;3.40;99.90;;;;;;5051278;28;20483;-75
2024/01/15 04:57:42;;;;;;;71.83;58.97;;;3.60;99.90;;;;;;5052432;28;20048;-74
2024/01/15 05:00:08;;;;;;;70.80;59.73;;;3.60;99.90;;;;;;5051322;28;20044;-74
2024/01/15 05:02:34;;;;;;;71.53;57.10;;;3.60;99.90;;;;;;5031136;28;20044;-73
2024/01/15 05:05:00;;;;;;;74.40;55.83;;;3.60;99.90;;;;;;5032751;28;20461;-74
2024/01/15 05:07:26;;;;;;;73.03;58.53;;;3.60;99.90;;;;;;5051355;28;20036;-74
2024/01/15 05:09:52;;;;;;;69.27;55.37;;;3.40;99.90;;;;;;5052490;28;20033;-74
2024/01/15 05:12:19;;;;;;;67.27;55.00;;;3.40;99.90;;;;;;5051994;28;20044;-75
2024/01/15 05:14:45;;;;;;;71.93;53.67;;;3.40;99.90;;;;;;5051715;28;20037;-74
2024/01/15 05:17:11;;;;;;;68.73;53.87;;;3.40;99.90;;;;;;5051465;28;20060;-74
2024/01/15 05:19:37;;;;;;;74.77;63.07;;;3.30;99.90;;;;;;5050997;28;20103;-75
2024/01/15 05:22:03;;;;;;;69.60;53.37;;;3.30;99.90;;;;;;5042299;28;20036;-74
2024/01/15 05:24:29;;;;;;;73.60;56.10;;;3.30;99.90;;;;;;5051096;28;20032;-74
2024/01/15 05:26:55;;;;;;;84.43;56.40;;;3.20;99.90;;;;;;5037149;28;20033;-74
2024/01/15 05:29:21;;;;;;;112.90;58.77;;;3.20;99.90;;;;;;5031906;28;20026;-74
2024/01/15 05:31:48;;;;;;;69.10;55.67;;;3.10;99.90;;;;;;5030354;28;20030;-74
2024/01/15 05:34:14;;;;;;;70.53;58.77;;;3.20;99.90;;;;;;5031668;28;20060;-73
2024/01/15 05:36:40;;;;;;;69.77;53.87;;;3.10;99.90;;;;;;5046152;28;20029;-74
2024/01/15 05:39:06;;;;;;;95.37;85.67;;;3.10;99.90;;;;;;5051496;28;20388;-74
2024/01/15 05:41:32;;;;;;;86.90;77.50;;;3.30;99.90;;;;;;5051083;28;20041;-73
2024/01/15 05:43:58;;;;;;;97.90;88.23;;;3.30;99.90;;;;;;5049946;28;20041;-74
2024/01/15 05:46:24;;;;;;;99.60;90.20;;;3.30;99.90;;;;;;5049946;28;20045;-74
2024/01/15 05:48:50;;;;;;;102.40;92.50;;;3.40;99.90;;;;;;5051734;28;20029;-74
2024/01/15 05:51:16;;;;;;;74.00;63.97;;;3.40;99.90;;;;;;5050064;28;20021;-74
2024/01/15 05:53:44;;;;;;;80.20;71.63;;;3.40;99.90;;;;;;5050752;28;20498;-74
2024/01/15 05:56:10;;;;;;;76.00;57.87;;;3.50;99.90;;;;;;5042410;28;20071;-74
2024/01/15 05:58:36;;;;;;;101.90;92.00;;;3.60;99.90;;;;;;5031441;28;20056;-74
2024/01/15 06:01:02;;;;;;;95.13;85.73;;;3.50;99.90;;;;;;5037966;28;20041;-74
2024/01/15 06:03:28;;;;;;;521.83;110.87;;;3.40;99.90;;;;;;5051776;28;20033;-74
2024/01/15 06:05:54;;;;;;;74.07;63.93;;;3.40;99.90;;;;;;5048449;28;20424;-73
2024/01/15 06:08:20;;;;;;;80.40;72.03;;;3.60;99.90;;;;;;5055582;28;20033;-73
2024/01/15 06:10:46;;;;;;;77.77;69.13;;;3.50;99.90;;;;;;5049338;28;20392;-74
2024/01/15 06:13:13;;;;;;;76.37;67.97;;;3.50;99.90;;;;;;5040278;28;20025;-74
2024/01/15 06:15:39;;;;;;;75.43;64.30;;;3.50;99.90;;;;;;5054197;28;20044;-74
2024/01/15 06:18:06;;;;;;;76.73;67.80;;;3.50;99.90;;;;;;5055178;28;20104;-74
2024/01/15 06:20:32;;;;;;;85.40;76.70;;;3.50;99.90;;;;;;5055327;28;20025;-74
2024/01/15 06:22:58;;;;;;;70.57;60.30;;;3.60;99.90;;;;;;5053556;28;20413;-74
2024/01/15 06:25:24;;;;;;;69.27;58.50;;;3.70;99.90;;;;;;5055053;28;20021;-74
2024/01/15 06:27:50;;;;;;;87.43;78.33;;;3.70;99.90;;;;;;5055063;28;20460;-74
2024/01/15 06:30:16;;;;;;;79.27;63.47;;;3.70;99.90;;;;;;5054661;28;20032;-74
2024/01/15 06:32:42;;;;;;;79.53;71.03;;;3.80;99.90;;;;;;5055455;28;20095;-73
2024/01/15 06:35:10;;;;;;;73.43;61.17;;;4.00;99.90;;;;;;5055214;28;20492;-73
2024/01/15 06:37:36;;;;;;;131.57;120.60;;;4.20;99.90;;;;;;5053070;28;20064;-73
2024/01/15 06:40:03;;;;;;;114.63;104.10;;;3.90;99.90;;;;;;5055023;28;20480;-73
2024/01/15 06:42:29;;;;;;;118.67;107.73;;;3.80;99.90;;;;;;5035693;28;20502;-74
2024/01/15 06:44:55;;;;;;;190.60;176.03;;;3.70;99.90;;;;;;5051551;28;20021;-73
2024/01/15 06:47:21;;;;;;;172.43;158.63;;;3.80;99.90;;;;;;5053554;28;20488;-71
2024/01/15 06:49:47;;;;;;;149.23;136.60;;;4.00;99.90;;;;;;5054725;28;20032;-71
2024/01/15 06:52:13;;;;;;;143.67;132.07;;;4.10;99.90;;;;;;5045715;28;20029;-71
2024/01/15 06:54:39;;;;;;;91.17;82.00;;;4.20;99.90;;;;;;5054655;28;20051;-71
2024/01/15 06:57:06;;;;;;;93.43;83.80;;;4.20;99.90;;;;;;5038236;28;20040;-71
2024/01/15 06:59:33;;;;;;;77.27;68.00;;;4.10;99.90;;;;;;5034299;28;20065;-71
2024/01/15 07:01:59;;;;;;;76.17;68.17;;;3.90;99.90;;;;;;5052194;28;20380;-71
2024/01/15 07:04:25;;;;;;;84.67;75.93;;;3.70;99.90;;;;;;5054883;28;20039;-71
2024/01/15 07:06:51;;;;;;;70.57;63.23;;;3.60;99.90;;;;;;5054214;28;20035;-71
2024/01/15 07:09:17;;;;;;;73.57;65.17;;;3.60;99.90;;;;;;5054429;28;20032;-71
2024/01/15 07:11:47;;;;;;;585.47;183.47;;;3.60;99.90;;;;;;5054151;28;20036;-71
2024/01/15 07:14:13;;;;;;;198.83;184.37;;;3.80;99.90;;;;;;5054015;28;20045;-73
2024/01/15 07:16:39;;;;;;;123.67;113.20;;;3.90;99.90;;;;;;5040244;28;20041;-71
2024/01/15 07:19:07;;;;;;;119.17;109.20;;;4.00;99.90;;;;;;5052630;28;20048;-71
2024/01/15 07:21:33;;;;;;;100.47;91.03;;;4.10;99.90;;;;;;5043693;28;20042;-71
2024/01/15 07:23:59;;;;;;;134.90;123.97;;;4.20;99.90;;;;;;5054022;28;20048;-70
2024/01/15 07:26:25;;;;;;;121.60;111.83;;;4.30;99.90;;;;;;5054378;28;20029;-71
2024/01/15 07:28:51;;;;;;;122.20;112.10;;;4.30;99.90;;;;;;5054229;28;20040;-71
2024/01/15 07:31:18;;;;;;;98.33;89.20;;;4.20;99.90;;;;;;5053694;28;20033;-71
2024/01/15 07:33:44;;;;;;;82.00;73.37;;;4.10;99.90;;;;;;5054253;28;20033;-71
2024/01/15 07:36:10;;;;;;;114.23;103.77;;;3.90;99.90;;;;;;5053977;28;20037;-71
2024/01/15 07:38:36;;;;;;;83.50;74.70;;;3.80;99.90;;;;;;5053776;28;20041;-71
2024/01/15 07:41:03;;;;;;;69.63;61.23;;;3.90;99.90;;;;;;5050038;28;20038;-73
2024/01/15 07:43:29;;;;;;;89.97;81.20;;;3.80;99.90;;;;;;5035131;28;20045;-73
2024/01/15 07:45:56;;;;;;;90.30;81.53;;;3.70;99.90;;;;;;5051224;28;20044;-74
2024/01/15 07:48:22;;;;;;;84.07;75.60;;;3.70;99.90;;;;;;5053460;28;20029;-72
2024/01/15 07:50:48;;;;;;;87.63;76.27;;;3.80;99.90;;;;;;5051798;28;20388;-72
2024/01/15 07:53:14;;;;;;;80.07;70.90;;;3.80;99.90;;;;;;5053157;28;20040;-72
2024/01/15 07:55:40;;;;;;;75.30;62.33;;;3.80;99.90;;;;;;5053197;28;20033;-72
2024/01/15 07:58:06;;;;;;;81.00;69.80;;;3.60;99.90;;;;;;5052956;28;20052;-72
2024/01/15 08:00:33;;;;;;;77.07;62.90;;;3.70;99.90;;;;;;5052878;28;20029;-72
2024/01/15 08:02:59;;;;;;;84.97;71.73;;;3.60;99.90;;;;;;5053619;28;20028;-72
2024/01/15 08:05:25;;;;;;;79.40;69.77;;;3.60;99.90;;;;;;5053642;28;20039;-72
2024/01/15 08:07:51;;;;;;;88.97;75.70;;;3.60;99.90;;;;;;5050871;28;20506;-72
2024/01/15 08:10:17;;;;;;;84.53;68.37;;;3.60;99.90;;;;;;5052193;28;20045;-72
2024/01/15 08:12:43;;;;;;;119.30;107.60;;;3.60;99.90;;;;;;5053437;28;20029;-72
2024/01/15 08:15:09;;;;;;;239.87;222.90;;;3.70;99.90;;;;;;5052470;28;20375;-72
2024/01/15 08:17:35;;;;;;;267.63;249.10;;;3.80;99.90;;;;;;5053306;28;20029;-72
2024/01/15 08:20:02;;;;;;;224.00;207.73;;;3.90;99.90;;;;;;5053323;28;20388;-73
2024/01/15 08:22:28;;;;;;;109.13;98.10;;;3.90;99.90;;;;;;5051269;28;20055;-72
2024/01/15 08:24:55;;;;;;;100.83;91.07;;;3.80;99.90;;;;;;5052236;28;20037;-72
2024/01/15 08:27:21;;;;;;;79.40;71.23;;;3.70;99.90;;;;;;5050847;28;20104;-72
2024/01/15 08:29:47;;;;;;;87.60;78.60;;;3.60;99.90;;;;;;5050551;28;20483;-73
2024/01/15 08:32:15;;;;;;;132.93;122.30;;;3.60;99.90;;;;;;5049015;28;20040;-73
2024/01/15 08:34:42;;;;;;;71.13;63.50;;;3.50;99.90;;;;;;5052040;28;20037;-72
2024/01/15 08:37:08;;;;;;;95.73;86.43;;;3.50;99.90;;;;;;5052179;28;20028;-73
2024/01/15 08:39:34;;;;;;;83.37;75.40;;;3.50;99.90;;;;;;5049225;28;20451;-73
2024/01/15 08:42:00;;;;;;;94.20;85.50;;;3.50;99.90;;;;;;5051095;28;20036;-72
2024/01/15 08:44:26;;;;;;;149.10;137.57;;;3.60;99.90;;;;;;5052766;28;20503;-73
2024/01/15 08:46:52;;;;;;;171.67;158.37;;;3.60;99.90;;;;;;5050686;28;20046;-73
2024/01/15 08:49:18;;;;;;;123.40;113.00;;;3.70;99.90;;;;;;5052477;28;20484;-73
2024/01/15 08:51:44;;;;;;;111.43;101.50;;;3.70;99.90;;;;;;5047782;28;20032;-73
2024/01/15 08:54:10;;;;;;;82.87;70.17;;;3.70;99.90;;;;;;5052150;28;20040;-73
2024/01/15 08:56:37;;;;;;;137.13;125.73;;;3.80;99.90;;;;;;5046392;28;20037;-73
2024/01/15 08:59:03;;;;;;;143.97;132.33;;;3.80;99.90;;;;;;5051847;28;20061;-73
2024/01/15 09:01:29;;;;;;;152.83;141.23;;;3.80;99.90;;;;;;5040563;28;20041;-73
2024/01/15 09:03:55;;;;;;;136.83;122.97;;;3.80;99.90;;;;;;5032016;28;20091;-72
2024/01/15 09:06:21;;;;;;;105.47;95.20;;;3.80;99.90;;;;;;5030169;28;20037;-73
2024/01/15 09:08:48;;;;;;;125.63;114.73;;;3.80;99.90;;;;;;5032542;28;20360;-73
2024/01/15 09:11:14;;;;;;;140.30;128.60;;;3.80;99.90;;;;;;5032948;28;20033;-73
2024/01/15 09:13:40;;;;;;;114.00;104.20;;;3.80;99.90;;;;;;5051817;28;20387;-73
2024/01/15 09:16:06;;;;;;;117.03;107.60;;;3.90;99.90;;;;;;5051562;28;20033;-72
2024/01/15 09:18:32;;;;;;;127.30;116.30;;;3.80;99.90;;;;;;5051931;28;20049;-73
2024/01/15 09:20:59;;;;;;;109.03;99.33;;;3.90;99.90;;;;;;5044888;28;20032;-74
2024/01/15 09:23:25;;;;;;;114.20;104.50;;;3.90;99.90;;;;;;5047330;28;20045;-73
2024/01/15 09:25:52;;;;;;;117.40;107.57;;;4.00;99.90;;;;;;5045992;28;20033;-74
2024/01/15 09:28:18;;;;;;;113.93;103.93;;;3.90;99.90;;;;;;5031506;28;20392;-74
2024/01/15 09:30:45;;;;;;;125.30;114.97;;;3.90;99.90;;;;;;5050212;28;20041;-73
2024/01/15 09:33:11;;;;;;;105.73;96.27;;;3.90;99.90;;;;;;5051306;28;20021;-74
2024/01/15 09:35:37;;;;;;;147.43;136.07;;;4.00;99.90;;;;;;5050504;28;20037;-73
2024/01/15 09:38:03;;;;;;;147.47;135.47;;;4.10;99.90;;;;;;5050690;28;20047;-72
2024/01/15 09:40:32;;;;;;;160.47;148.83;;;4.20;99.90;;;;;;5048613;28;20384;-72
2024/01/15 09:42:58;;;;;;;151.53;139.73;;;4.40;99.90;;;;;;5031345;28;20045;-73
2024/01/15 09:45:24;;;;;;;126.80;116.67;;;4.30;99.90;;;;;;5025248;28;20499;-75
2024/01/15 09:47:50;;;;;;;160.73;148.87;;;4.30;99.90;;;;;;5050669;28;20033;-72
2024/01/15 09:50:16;;;;;;;133.83;123.30;;;4.30;99.90;;;;;;5049974;28;20384;-71
2024/01/15 09:52:44;;;;;;;118.10;108.87;;;4.30;99.90;;;;;;5051099;28;20051;-72
2024/01/15 09:55:10;;;;;;;136.53;125.83;;;4.30;99.90;;;;;;5051455;28;20021;-72
2024/01/15 09:57:36;;;;;;;122.77;112.73;;;4.50;99.90;;;;;;5044545;28;20029;-72
2024/01/15 10:00:06;;;;;;;138.00;127.47;;;4.60;99.90;;;;;;5050512;28;20040;-71
2024/01/15 10:02:32;;;;;;;150.10;138.90;;;4.50;99.90;;;;;;5013802;28;20045;-73
2024/01/15 10:04:58;;;;;;;110.50;101.20;;;4.70;99.90;;;;;;5016695;28;20048;-72
2024/01/15 10:07:24;;;;;;;107.43;98.63;;;4.70;99.90;;;;;;5033703;28;20033;-72
2024/01/15 10:09:50;;;;;;;118.70;109.23;;;4.60;99.90;;;;;;5033945;28;20387;-72
2024/01/15 10:12:16;;;;;;;123.13;113.10;;;4.60;99.90;;;;;;5049199;28;20025;-72
2024/01/15 10:14:43;;;;;;;175.13;162.77;;;4.70;99.90;;;;;;5050956;28;20506;-72
2024/01/15 10:17:14;;;;;;;113.03;104.20;;;4.80;99.90;;;;;;5050046;28;20041;-72
2024/01/15 10:19:41;;;;;;;102.72;94.43;;;4.80;99.90;;;;;;5051053;28;20415;-72
2024/01/15 10:22:09;;;;;;;81.23;73.50;;;4.70;99.90;;;;;;5034327;28;20026;-74
2024/01/15 10:24:37;;;;;;;106.83;97.83;;;4.60;99.90;;;;;;5044714;28;20041;-72
2024/01/15 10:27:09;;;;;;;163.07;151.60;;;4.50;99.90;;;;;;5050686;28;20036;-72
2024/01/15 10:29:36;;;;;;;95.90;87.37;;;4.50;99.90;;;;;;5050115;28;20037;-72
2024/01/15 10:32:06;;;;;;;106.90;98.53;;;4.50;99.90;;;;;;5048299;28;20515;-72
2024/01/15 10:34:32;;;;;;;101.78;93.38;;;4.50;99.90;;;;;;5048379;28;20048;-72
2024/01/15 10:36:58;;;;;;;84.70;76.97;;;4.50;99.90;;;;;;5044962;28;20736;-72
2024/01/15 10:39:25;;;;;;;102.63;93.77;;;4.50;99.90;;;;;;5051256;28;20037;-72
2024/01/15 10:41:51;;;;;;;177.50;165.13;;;4.50;99.90;;;;;;5049883;28;20151;-72
2024/01/15 10:44:18;;;;;;;178.60;166.83;;;4.50;99.90;;;;;;5050673;28;20045;-72
2024/01/15 10:46:45;;;;;;;221.70;206.80;;;4.60;99.90;;;;;;5047828;28;20033;-72
2024/01/15 10:49:14;;;;;;;107.67;99.33;;;4.70;99.90;;;;;;5051130;28;20474;-72
2024/01/15 10:51:40;;;;;;;145.70;135.63;;;4.90;99.90;;;;;;5046855;28;20387;-72
2024/01/15 10:54:08;;;;;;;99.50;91.67;;;4.90;99.90;;;;;;5036536;28;20383;-71
2024/01/15 10:56:34;;;;;;;111.57;103.10;;;4.90;99.90;;;;;;5051180;28;20047;-71
2024/01/15 10:59:00;;;;;;;96.00;88.47;;;4.90;99.90;;;;;;5036630;28;20041;-71
2024/01/15 11:01:26;;;;;;;122.93;114.17;;;4.90;99.90;;;;;;5048602;28;20398;-70
2024/01/15 11:03:54;;;;;;;100.63;93.20;;;4.90;99.90;;;;;;5053318;28;20039;-71
2024/01/15 11:06:20;;;;;;;149.57;139.77;;;5.00;99.90;;;;;;5044222;28;20464;-71
2024/01/15 11:08:52;;;;;;;133.47;124.23;;;4.90;99.90;;;;;;5052897;28;20041;-71
2024/01/15 11:11:18;;;;;;;125.23;116.57;;;4.90;99.90;;;;;;5045071;28;20034;-71
2024/01/15 11:13:46;;;;;;;169.20;158.43;;;5.00;99.90;;;;;;5045801;28;20044;-71
2024/01/15 11:16:14;;;;;;;132.90;123.90;;;5.00;99.90;;;;;;5044011;28;20034;-71
2024/01/15 11:18:41;;;;;;;119.97;111.33;;;5.10;99.90;;;;;;5053654;28;20037;-71
2024/01/15 11:21:16;;;;;;;143.57;133.63;;;5.10;99.90;;;;;;5046333;28;20033;-71
2024/01/15 11:23:48;;;;;;;144.33;134.20;;;5.20;99.90;;;;;;5052973;28;20423;-72
2024/01/15 11:26:38;;;;;;;140.37;130.60;;;5.20;99.90;;;;;;5044683;28;20025;-72
2024/01/15 11:29:10;;;;;;;138.83;129.30;;;5.30;99.90;;;;;;5033920;28;20029;-72
2024/01/15 11:31:39;;;;;;;69.37;63.13;;;5.20;99.90;;;;;;5031187;28;20037;-72
2024/01/15 11:34:06;;;;;;;86.17;78.63;;;5.30;99.90;;;;;;5033739;28;20025;-72
2024/01/15 11:36:51;;;;;;;109.47;101.50;;;5.50;99.90;;;;;;5031719;28;20643;-72
2024/01/15 11:39:30;;;;;;;87.40;80.80;;;5.50;99.90;;;;;;5042905;28;20063;-72
2024/01/15 11:41:57;;;;;;;107.77;100.20;;;5.50;99.90;;;;;;5047863;28;20419;-72
2024/01/15 11:44:23;;;;;;;106.90;99.57;;;5.60;99.90;;;;;;5053616;28;20049;-72
2024/01/15 11:47:04;;;;;;;106.63;99.33;;;5.50;99.90;;;;;;5052330;28;20488;-72
2024/01/15 11:49:56;;;;;;;87.03;80.63;;;5.70;99.90;;;;;;5052235;28;20052;-72
2024/01/15 11:52:23;;;;;;;97.00;89.80;;;5.60;99.90;;;;;;5033026;28;20049;-72
2024/01/15 11:55:13;;;;;;;275.47;259.13;;;5.60;99.90;;;;;;5034088;28;20033;-72
2024/01/15 11:57:39;;;;;;;73.95;68.57;;;5.60;99.90;;;;;;5016926;28;20037;-71
2024/01/15 12:00:06;;;;;;;185.93;174.40;;;5.60;99.90;;;;;;5049902;28;20037;-71
2024/01/15 12:02:33;;;;;;;166.00;155.27;;;5.60;99.90;;;;;;5032160;28;20033;-71
2024/01/15 12:04:59;;;;;;;199.30;186.50;;;5.70;99.90;;;;;;5032787;28;20060;-71
2024/01/15 12:07:25;;;;;;;188.63;176.20;;;5.80;99.90;;;;;;5045203;28;20029;-71
2024/01/15 12:09:51;;;;;;;161.43;150.40;;;5.80;99.90;;;;;;5051977;28;20086;-71
2024/01/15 12:12:24;;;;;;;182.60;169.67;;;5.90;99.90;;;;;;5036276;28;20060;-71
2024/01/15 12:14:50;;;;;;;228.27;213.17;;;5.90;99.90;;;;;;5052523;28;20033;-71
2024/01/15 12:17:16;;;;;;;140.73;131.23;;;5.90;99.90;;;;;;5035016;28;20046;-71
2024/01/15 12:19:43;;;;;;;120.23;111.90;;;5.90;99.90;;;;;;5032899;28;20037;-71
2024/01/15 12:22:09;;;;;;;141.20;131.67;;;5.70;99.90;;;;;;5030819;28;20408;-71